Chemtrans Mabuhay — A8XX9 — position and weather

sailwx.info

Track history (hours):
 
Tides and Currents Weather Stations Pressure Air Temp Water Temp Dewpoint Dewpoint Depression Visibility Wind Speed Wind Dir Waves Ship Positions

Chemtrans Mabuhay

Last reported at 2014-Sep-04 02:25 UTC. Time now 2014-Oct-01 04:13 UTC.
Position N 27°36' W 083°01'.
Warning: this ship's position is 27 days out of date.

Length 140 m; draft 9.8 m.

Type: Ship. MMSI: 636092180.

Date/timePositionNaut miles runAvg speedWind from/ knotsBaromVisibWave heightAir tempDewpointWater temp
2014-Sep-04 02:25N 27°36' W 083°01'1011.5
2014-Sep-04 01:30N 27°36' W 082°49'1010.5
2014-Sep-04 00:33N 27°38' W 082°38'1010.0
2014-Sep-03 23:33N 27°46' W 082°31'11 8.1
2014-Sep-03 22:15N 27°55' W 082°26'  
2014-Sep-01 15:22N 27°55' W 082°26'3 3.2
2014-Sep-01 14:30N 27°52' W 082°27'9 9.2
2014-Sep-01 13:33N 27°45' W 082°32'1010.0
2014-Sep-01 12:33N 27°37' W 082°39'1010.4
2014-Sep-01 11:33N 27°36' W 082°51'10 9.6
2014-Sep-01 10:33N 27°35' W 083°01'3 2.7
2014-Sep-01 09:33N 27°37' W 083°02'0 0.2
2014-Sep-01 08:23N 27°38' W 083°02'0 0.0
2014-Sep-01 07:32N 27°38' W 083°02'0 0.0
2014-Sep-01 06:29N 27°38' W 083°02'0 0.0
2014-Sep-01 05:32N 27°38' W 083°02'0 0.0
2014-Sep-01 04:29N 27°38' W 083°02'0 0.0
2014-Sep-01 03:32N 27°38' W 083°02'0 0.0
2014-Sep-01 02:33N 27°38' W 083°02'13 9.7
2014-Sep-01 01:16N 27°36' W 083°16'39010.5
2014-Aug-30 12:06N 29°56' W 090°11'5 9.9
2014-Aug-30 11:33N 29°58' W 090°17'29 1.1
2014-Aug-29 08:31N 29°37' W 089°54'256 7.1
2014-Aug-27 20:30N 29°22' W 094°48'1011.1
2014-Aug-27 19:33N 29°32' W 094°53'8 8.3
2014-Aug-27 18:33N 29°37' W 095°01'1 0.6
2014-Aug-27 17:31N 29°37' W 095°02'0 0.0
2014-Aug-27 16:32N 29°37' W 095°02'0 0.0
2014-Aug-27 15:32N 29°37' W 095°02'0 0.0
2014-Aug-27 14:31N 29°37' W 095°02'0 0.0
2014-Aug-27 13:31N 29°37' W 095°02'0 0.0
2014-Aug-27 12:31N 29°37' W 095°02'0 0.0
2014-Aug-27 11:32N 29°37' W 095°02'0 0.0
2014-Aug-27 10:28N 29°37' W 095°02'0 0.0
2014-Aug-27 09:31N 29°37' W 095°02'0 0.0
2014-Aug-27 08:31N 29°37' W 095°02'0 0.0
2014-Aug-27 07:31N 29°37' W 095°02'0 0.0
2014-Aug-27 06:28N 29°37' W 095°02'0 0.0
2014-Aug-27 05:31N 29°37' W 095°02'0 0.0
2014-Aug-27 04:31N 29°37' W 095°02'0 0.0
2014-Aug-27 03:32N 29°37' W 095°02'0 0.0
2014-Aug-27 02:31N 29°37' W 095°02'0 0.0
2014-Aug-27 01:31N 29°37' W 095°02'0 0.0
2014-Aug-27 00:32N 29°37' W 095°02'0 0.0
2014-Aug-26 23:32N 29°37' W 095°02'0 0.0
2014-Aug-26 22:31N 29°37' W 095°02'0 0.0
2014-Aug-26 21:28N 29°37' W 095°02'0 0.0
2014-Aug-26 20:31N 29°37' W 095°02'0 0.0
2014-Aug-26 19:31N 29°37' W 095°02'0 0.0
2014-Aug-26 18:31N 29°37' W 095°02'0 0.0
2014-Aug-26 17:31N 29°37' W 095°02'0 0.0
2014-Aug-26 16:31N 29°37' W 095°02'0 0.0
2014-Aug-26 15:26N 29°37' W 095°02'0 0.0
2014-Aug-26 14:31N 29°37' W 095°02'0 0.0
2014-Aug-26 13:32N 29°37' W 095°02'0 0.0
2014-Aug-26 12:32N 29°37' W 095°02'0 0.0
2014-Aug-26 11:31N 29°37' W 095°02'0 0.0
2014-Aug-26 10:32N 29°37' W 095°02'0 0.0
2014-Aug-26 09:31N 29°37' W 095°02'0 0.0
2014-Aug-26 08:32N 29°37' W 095°02'0 0.0
2014-Aug-26 07:31N 29°37' W 095°02'0 0.0
2014-Aug-26 06:32N 29°37' W 095°02'0 0.0
2014-Aug-26 05:31N 29°37' W 095°02'0 0.0
2014-Aug-26 04:31N 29°37' W 095°02'0 0.0
2014-Aug-26 03:28N 29°37' W 095°02'0 0.0
2014-Aug-26 02:32N 29°37' W 095°02'13 0.6
2014-Aug-25 03:33N 29°43' W 095°14'6 5.7
2014-Aug-25 02:33N 29°44' W 095°08'  
Track history (hours):
 
Tides and Currents Weather Stations Pressure Air Temp Water Temp Dewpoint Dewpoint Depression Visibility Wind Speed Wind Dir Waves Ship Positions

Chemtrans Mabuhay

Last reported at 2014-Sep-04 02:25 UTC. Time now 2014-Oct-01 04:13 UTC.
Position N 27°36' W 083°01'.
Warning: this ship's position is 27 days out of date.

Length 140 m; draft 9.8 m.

Type: Ship. MMSI: 636092180.

Date/timePositionNaut miles runAvg speedWind from/ knotsBaromVisibWave heightAir tempDewpointWater temp
2014-Sep-04 02:25N 27°36' W 083°01'1011.5
2014-Sep-04 01:30N 27°36' W 082°49'1010.5
2014-Sep-04 00:33N 27°38' W 082°38'1010.0
2014-Sep-03 23:33N 27°46' W 082°31'11 8.1
2014-Sep-03 22:15N 27°55' W 082°26'  
2014-Sep-01 15:22N 27°55' W 082°26'3 3.2
2014-Sep-01 14:30N 27°52' W 082°27'9 9.2
2014-Sep-01 13:33N 27°45' W 082°32'1010.0
2014-Sep-01 12:33N 27°37' W 082°39'1010.4
2014-Sep-01 11:33N 27°36' W 082°51'10 9.6
2014-Sep-01 10:33N 27°35' W 083°01'3 2.7
2014-Sep-01 09:33N 27°37' W 083°02'0 0.2
2014-Sep-01 08:23N 27°38' W 083°02'0 0.0
2014-Sep-01 07:32N 27°38' W 083°02'0 0.0
2014-Sep-01 06:29N 27°38' W 083°02'0 0.0
2014-Sep-01 05:32N 27°38' W 083°02'0 0.0
2014-Sep-01 04:29N 27°38' W 083°02'0 0.0
2014-Sep-01 03:32N 27°38' W 083°02'0 0.0
2014-Sep-01 02:33N 27°38' W 083°02'13 9.7
2014-Sep-01 01:16N 27°36' W 083°16'39010.5
2014-Aug-30 12:06N 29°56' W 090°11'5 9.9
2014-Aug-30 11:33N 29°58' W 090°17'29 1.1
2014-Aug-29 08:31N 29°37' W 089°54'256 7.1
2014-Aug-27 20:30N 29°22' W 094°48'1011.1
2014-Aug-27 19:33N 29°32' W 094°53'8 8.3
2014-Aug-27 18:33N 29°37' W 095°01'1 0.6
2014-Aug-27 17:31N 29°37' W 095°02'0 0.0
2014-Aug-27 16:32N 29°37' W 095°02'0 0.0
2014-Aug-27 15:32N 29°37' W 095°02'0 0.0
2014-Aug-27 14:31N 29°37' W 095°02'0 0.0
2014-Aug-27 13:31N 29°37' W 095°02'0 0.0
2014-Aug-27 12:31N 29°37' W 095°02'0 0.0
2014-Aug-27 11:32N 29°37' W 095°02'0 0.0
2014-Aug-27 10:28N 29°37' W 095°02'0 0.0
2014-Aug-27 09:31N 29°37' W 095°02'0 0.0
2014-Aug-27 08:31N 29°37' W 095°02'0 0.0
2014-Aug-27 07:31N 29°37' W 095°02'0 0.0
2014-Aug-27 06:28N 29°37' W 095°02'0 0.0
2014-Aug-27 05:31N 29°37' W 095°02'0 0.0
2014-Aug-27 04:31N 29°37' W 095°02'0 0.0
2014-Aug-27 03:32N 29°37' W 095°02'0 0.0
2014-Aug-27 02:31N 29°37' W 095°02'0 0.0
2014-Aug-27 01:31N 29°37' W 095°02'0 0.0
2014-Aug-27 00:32N 29°37' W 095°02'0 0.0
2014-Aug-26 23:32N 29°37' W 095°02'0 0.0
2014-Aug-26 22:31N 29°37' W 095°02'0 0.0
2014-Aug-26 21:28N 29°37' W 095°02'0 0.0
2014-Aug-26 20:31N 29°37' W 095°02'0 0.0
2014-Aug-26 19:31N 29°37' W 095°02'0 0.0
2014-Aug-26 18:31N 29°37' W 095°02'0 0.0
2014-Aug-26 17:31N 29°37' W 095°02'0 0.0
2014-Aug-26 16:31N 29°37' W 095°02'0 0.0
2014-Aug-26 15:26N 29°37' W 095°02'0 0.0
2014-Aug-26 14:31N 29°37' W 095°02'0 0.0
2014-Aug-26 13:32N 29°37' W 095°02'0 0.0
2014-Aug-26 12:32N 29°37' W 095°02'0 0.0
2014-Aug-26 11:31N 29°37' W 095°02'0 0.0
2014-Aug-26 10:32N 29°37' W 095°02'0 0.0
2014-Aug-26 09:31N 29°37' W 095°02'0 0.0
2014-Aug-26 08:32N 29°37' W 095°02'0 0.0
2014-Aug-26 07:31N 29°37' W 095°02'0 0.0
2014-Aug-26 06:32N 29°37' W 095°02'0 0.0
2014-Aug-26 05:31N 29°37' W 095°02'0 0.0
2014-Aug-26 04:31N 29°37' W 095°02'0 0.0
2014-Aug-26 03:28N 29°37' W 095°02'0 0.0
2014-Aug-26 02:32N 29°37' W 095°02'13 0.6
2014-Aug-25 03:33N 29°43' W 095°14'6 5.7
2014-Aug-25 02:33N 29°44' W 095°08'  

Dump ship's entire track history